createdAt,value
2018-05-16T00:00:43.089Z,97.70
2018-05-16T00:03:10.717Z,97.70
2018-05-16T00:05:39.756Z,97.80
2018-05-16T00:08:07.340Z,97.70
2018-05-16T00:10:34.968Z,97.80
2018-05-16T00:13:02.593Z,97.90
2018-05-16T00:15:31.023Z,97.90
2018-05-16T00:17:58.680Z,97.90
2018-05-16T00:20:27.179Z,98.00
2018-05-16T00:22:54.803Z,98.00
2018-05-16T00:25:22.387Z,98.00
2018-05-16T00:27:50.067Z,98.00
2018-05-16T00:30:17.838Z,98.10
2018-05-16T00:32:45.424Z,98.10
2018-05-16T00:35:13.815Z,98.10
2018-05-16T00:37:41.436Z,98.10
2018-05-16T00:40:09.783Z,98.10
2018-05-16T00:42:37.439Z,98.10
2018-05-16T00:45:05.064Z,98.10
2018-05-16T00:47:32.735Z,98.20
2018-05-16T00:50:00.369Z,98.20
2018-05-16T00:52:28.765Z,98.20
2018-05-16T00:54:57.612Z,98.20
2018-05-16T00:57:25.200Z,98.20
2018-05-16T00:59:53.646Z,98.30
2018-05-16T01:02:21.271Z,98.30
2018-05-16T01:04:48.886Z,98.40
2018-05-16T01:07:16.540Z,98.40
2018-05-16T01:09:44.938Z,98.40
2018-05-16T01:12:12.540Z,98.50
2018-05-16T01:14:40.221Z,98.40
2018-05-16T01:17:07.840Z,98.30
2018-05-16T01:19:35.537Z,98.40
2018-05-16T01:22:03.125Z,98.40
2018-05-16T01:24:30.744Z,98.50
2018-05-16T01:26:58.397Z,98.50
2018-05-16T01:29:26.025Z,98.50
2018-05-16T01:31:54.448Z,98.50
2018-05-16T01:34:22.039Z,98.50
2018-05-16T01:36:49.734Z,98.40
2018-05-16T01:39:17.419Z,98.40
2018-05-16T01:41:45.071Z,98.40
2018-05-16T01:44:12.863Z,98.30
2018-05-16T01:46:40.496Z,98.20
2018-05-16T01:49:20.186Z,98.20
2018-05-16T01:51:47.858Z,98.20
2018-05-16T01:54:15.491Z,98.30
2018-05-16T01:56:43.570Z,98.20
2018-05-16T01:59:11.233Z,98.20
2018-05-16T02:01:38.865Z,98.10
2018-05-16T02:04:06.464Z,98.10
2018-05-16T02:06:34.125Z,98.10
2018-05-16T02:09:01.735Z,98.10
2018-05-16T02:11:29.430Z,98.00
2018-05-16T02:13:57.046Z,98.10
2018-05-16T02:16:24.667Z,98.10
2018-05-16T02:18:52.715Z,98.20
2018-05-16T02:21:20.345Z,98.10
2018-05-16T02:23:47.929Z,98.10
2018-05-16T02:26:15.516Z,98.20
2018-05-16T02:28:43.144Z,98.20
2018-05-16T02:31:10.802Z,98.10
2018-05-16T02:33:38.471Z,98.10
2018-05-16T02:36:06.071Z,98.00
2018-05-16T02:38:34.598Z,98.10
2018-05-16T02:41:02.259Z,98.10
2018-05-16T02:43:30.049Z,98.20
2018-05-16T02:45:57.668Z,98.10
2018-05-16T02:48:25.297Z,98.00
2018-05-16T02:50:53.664Z,97.70
2018-05-16T02:53:22.795Z,97.90
2018-05-16T02:55:51.243Z,97.90
2018-05-16T02:58:19.340Z,97.90
2018-05-16T03:00:47.704Z,97.90
2018-05-16T03:03:16.370Z,97.90
2018-05-16T03:05:43.990Z,97.90
2018-05-16T03:08:11.613Z,98.10
2018-05-16T03:10:39.998Z,98.20
2018-05-16T03:13:08.364Z,98.00
2018-05-16T03:15:36.755Z,98.10
2018-05-16T03:18:05.734Z,98.10
2018-05-16T03:20:33.351Z,98.10
2018-05-16T03:23:00.961Z,98.00
2018-05-16T03:25:30.083Z,98.10
2018-05-16T03:27:57.716Z,98.10
2018-05-16T03:30:26.101Z,98.20
2018-05-16T03:32:54.530Z,98.30
2018-05-16T03:35:22.162Z,98.30
2018-05-16T03:37:49.771Z,98.30
2018-05-16T03:40:18.135Z,98.40
2018-05-16T03:42:45.886Z,98.30
2018-05-16T03:45:13.476Z,98.20
2018-05-16T03:47:41.091Z,98.10
2018-05-16T03:50:09.318Z,98.00
2018-05-16T03:52:36.971Z,97.90
2018-05-16T03:55:04.617Z,97.90
2018-05-16T03:57:44.194Z,97.80
2018-05-16T04:00:24.544Z,97.60
2018-05-16T04:03:04.722Z,97.40
2018-05-16T04:05:32.966Z,97.40
2018-05-16T04:08:01.376Z,97.40
2018-05-16T04:10:28.974Z,97.40
2018-05-16T04:12:56.615Z,97.70
2018-05-16T04:15:24.262Z,97.40
2018-05-16T04:17:51.882Z,97.30
2018-05-16T04:20:19.481Z,97.10
2018-05-16T04:22:47.146Z,96.90
2018-05-16T04:25:14.833Z,96.90
2018-05-16T04:27:42.453Z,96.90
2018-05-16T04:30:10.073Z,96.90
2018-05-16T04:32:37.693Z,96.80
2018-05-16T04:35:05.337Z,96.50
2018-05-16T04:37:32.965Z,96.20
2018-05-16T04:40:00.828Z,95.60
2018-05-16T04:42:28.456Z,95.60
2018-05-16T04:44:56.047Z,95.50
2018-05-16T04:47:23.704Z,95.40
2018-05-16T04:49:51.324Z,95.30
2018-05-16T04:52:18.936Z,95.40
2018-05-16T04:54:46.551Z,95.20
2018-05-16T04:57:14.172Z,95.00
2018-05-16T04:59:41.836Z,95.00
2018-05-16T05:02:10.229Z,94.60
2018-05-16T05:04:37.815Z,94.60
2018-05-16T05:07:05.439Z,94.90
2018-05-16T05:09:33.059Z,94.80
2018-05-16T05:12:00.677Z,94.70
2018-05-16T05:14:28.341Z,94.50
2018-05-16T05:16:56.021Z,94.40
2018-05-16T05:19:23.674Z,94.30
2018-05-16T05:21:51.284Z,94.30
2018-05-16T05:24:18.907Z,94.50
2018-05-16T05:26:46.515Z,94.40
2018-05-16T05:29:14.902Z,94.50
2018-05-16T05:31:42.524Z,94.50
2018-05-16T05:34:10.383Z,94.60
2018-05-16T05:36:38.035Z,94.70
2018-05-16T05:39:05.661Z,94.60
2018-05-16T05:41:33.289Z,94.50
2018-05-16T05:44:00.962Z,94.10
2018-05-16T05:46:29.324Z,93.70
2018-05-16T05:48:57.705Z,93.70
2018-05-16T05:51:25.304Z,93.70
2018-05-16T05:53:52.946Z,93.60
2018-05-16T05:56:20.633Z,93.50
2018-05-16T05:58:48.291Z,93.70
2018-05-16T06:01:15.951Z,93.90
2018-05-16T06:03:44.860Z,94.00
2018-05-16T06:06:12.648Z,94.00
2018-05-16T06:08:40.330Z,93.90
2018-05-16T06:11:08.716Z,93.40
2018-05-16T06:13:37.141Z,93.60
2018-05-16T06:16:04.779Z,93.60
2018-05-16T06:18:33.366Z,93.50
2018-05-16T06:21:00.955Z,93.60
2018-05-16T06:23:28.572Z,93.70
2018-05-16T06:25:56.221Z,93.90
2018-05-16T06:28:24.621Z,94.30
2018-05-16T06:30:52.798Z,94.20
2018-05-16T06:33:20.420Z,94.10
2018-05-16T06:35:48.821Z,94.00
2018-05-16T06:38:16.426Z,94.00
2018-05-16T06:40:44.112Z,93.90
2018-05-16T06:43:12.525Z,93.50
2018-05-16T06:45:40.147Z,93.40
2018-05-16T06:48:07.770Z,93.20
2018-05-16T06:50:35.470Z,92.90
2018-05-16T06:53:03.835Z,91.90
2018-05-16T06:55:31.455Z,91.90
2018-05-16T06:57:59.090Z,91.40
2018-05-16T07:00:27.514Z,90.90
2018-05-16T07:02:55.145Z,90.90
2018-05-16T07:05:22.769Z,90.90
2018-05-16T07:07:50.755Z,90.80
2018-05-16T07:12:53.296Z,88.40
2018-05-16T07:15:20.969Z,88.20
2018-05-16T07:17:48.761Z,86.30
2018-05-16T07:20:16.373Z,85.80
2018-05-16T07:22:44.008Z,86.20
2018-05-16T07:25:13.627Z,86.50
2018-05-16T07:27:41.253Z,85.60
2018-05-16T07:30:10.386Z,84.70
2018-05-16T07:32:37.984Z,84.70
2018-05-16T07:35:05.606Z,82.00
2018-05-16T07:37:33.202Z,80.80
2018-05-16T07:40:00.816Z,79.60
2018-05-16T07:42:28.419Z,80.10
2018-05-16T07:44:56.166Z,80.00
2018-05-16T07:47:23.788Z,79.40
2018-05-16T07:49:51.459Z,77.80
2018-05-16T07:52:19.337Z,76.90
2018-05-16T07:54:46.954Z,75.90
2018-05-16T07:57:14.572Z,74.60
2018-05-16T07:59:42.194Z,75.70
2018-05-16T08:02:09.826Z,76.60
2018-05-16T08:04:37.426Z,76.50
2018-05-16T08:07:05.074Z,76.50
2018-05-16T08:09:32.773Z,75.10
2018-05-16T08:12:00.404Z,76.60
2018-05-16T08:14:28.024Z,74.70
2018-05-16T08:16:56.533Z,72.40
2018-05-16T08:19:24.210Z,69.90
2018-05-16T08:21:52.753Z,69.90
2018-05-16T08:24:21.076Z,69.90
2018-05-16T08:26:48.755Z,69.80
2018-05-16T08:29:16.360Z,71.20
2018-05-16T08:31:45.144Z,71.00
2018-05-16T08:34:13.559Z,72.50
2018-05-16T08:36:42.001Z,72.50
2018-05-16T08:39:09.669Z,72.20
2018-05-16T08:41:38.026Z,71.20
2018-05-16T08:44:05.690Z,71.20
2018-05-16T08:46:33.286Z,72.10
2018-05-16T08:49:00.943Z,72.30
2018-05-16T08:51:28.569Z,71.20
2018-05-16T08:53:56.327Z,69.80
2018-05-16T08:56:23.922Z,67.30
2018-05-16T08:58:52.323Z,67.50
2018-05-16T09:01:20.332Z,67.60
2018-05-16T09:03:47.941Z,68.20
2018-05-16T09:06:15.616Z,67.20
2018-05-16T09:08:43.228Z,67.10
2018-05-16T09:11:11.641Z,67.20
2018-05-16T09:13:39.349Z,67.30
2018-05-16T09:16:07.006Z,67.80
2018-05-16T09:18:34.634Z,67.90
2018-05-16T09:21:02.333Z,65.30
2018-05-16T09:23:29.929Z,63.70
2018-05-16T09:25:58.305Z,61.20
2018-05-16T09:28:26.734Z,61.30
2018-05-16T09:30:54.944Z,61.10
2018-05-16T09:33:22.569Z,61.80
2018-05-16T09:35:50.164Z,62.90
2018-05-16T09:38:18.611Z,60.80
2018-05-16T09:40:46.260Z,60.80
2018-05-16T09:43:13.878Z,61.40
2018-05-16T09:45:43.081Z,59.00
2018-05-16T09:48:10.639Z,58.90
2018-05-16T09:50:39.015Z,56.90
2018-05-16T09:53:07.389Z,55.70
2018-05-16T09:55:35.774Z,54.30
2018-05-16T09:58:04.212Z,53.10
2018-05-16T10:00:31.834Z,53.10
2018-05-16T10:03:00.073Z,51.80
2018-05-16T10:05:28.475Z,51.20
2018-05-16T10:07:56.824Z,50.60
2018-05-16T10:10:24.510Z,50.50
2018-05-16T10:12:52.885Z,48.90
2018-05-16T10:15:21.260Z,47.90
2018-05-16T10:17:49.710Z,47.30
2018-05-16T10:20:18.040Z,47.30
2018-05-16T10:22:45.566Z,45.90
2018-05-16T10:25:13.199Z,45.20
2018-05-16T10:27:40.960Z,45.30
2018-05-16T10:30:08.575Z,46.30
2018-05-16T10:32:36.200Z,47.20
2018-05-16T10:35:03.849Z,45.70
2018-05-16T10:37:31.460Z,45.60
2018-05-16T10:39:59.109Z,47.30
2018-05-16T10:42:26.721Z,46.00
2018-05-16T10:44:54.561Z,47.50
2018-05-16T10:47:22.802Z,46.50
2018-05-16T10:49:51.205Z,46.60
2018-05-16T10:52:18.854Z,46.60
2018-05-16T10:54:47.224Z,44.70
2018-05-16T10:57:16.341Z,45.00
2018-05-16T10:59:44.045Z,45.00
2018-05-16T11:02:11.766Z,45.50
2018-05-16T11:04:39.408Z,44.10
2018-05-16T11:07:07.017Z,44.20
2018-05-16T11:09:34.677Z,44.40
2018-05-16T11:12:02.299Z,45.00
2018-05-16T11:14:32.185Z,44.70
2018-05-16T11:17:00.561Z,43.50
2018-05-16T11:19:28.923Z,43.30
2018-05-16T11:21:56.536Z,43.30
2018-05-16T11:24:25.039Z,43.20
2018-05-16T11:26:54.619Z,43.40
2018-05-16T11:29:22.281Z,43.50
2018-05-16T11:31:49.890Z,43.40
2018-05-16T11:34:17.521Z,44.00
2018-05-16T11:36:45.302Z,44.50
2018-05-16T11:39:12.840Z,45.10
2018-05-16T11:41:40.465Z,44.20
2018-05-16T11:44:08.891Z,44.10
2018-05-16T11:46:37.117Z,44.10
2018-05-16T11:49:05.502Z,42.90
2018-05-16T11:51:33.951Z,41.50
2018-05-16T11:54:02.399Z,41.40
2018-05-16T11:56:30.022Z,38.70
2018-05-16T11:58:57.756Z,40.10
2018-05-16T12:01:25.346Z,40.30
2018-05-16T12:03:53.448Z,39.20
2018-05-16T12:06:21.833Z,40.20
2018-05-16T12:08:50.070Z,40.00
2018-05-16T12:11:17.681Z,39.60
2018-05-16T12:13:45.321Z,39.70
2018-05-16T12:16:12.954Z,40.70
2018-05-16T12:18:40.542Z,40.50
2018-05-16T12:21:08.243Z,39.60
2018-05-16T12:23:36.673Z,38.20
2018-05-16T12:26:04.364Z,38.20
2018-05-16T12:28:32.010Z,37.60
2018-05-16T12:30:59.592Z,37.40
2018-05-16T12:33:27.258Z,37.80
2018-05-16T12:35:55.202Z,36.90
2018-05-16T12:38:22.960Z,35.70
2018-05-16T12:40:50.634Z,35.00
2018-05-16T12:43:19.075Z,33.20
2018-05-16T12:45:47.055Z,31.10
2018-05-16T12:48:14.681Z,29.90
2018-05-16T12:50:43.145Z,30.10
2018-05-16T12:53:10.752Z,30.10
2018-05-16T12:55:39.021Z,28.70
2018-05-16T12:58:07.415Z,28.70
2018-05-16T13:00:35.003Z,28.60
2018-05-16T13:03:02.659Z,27.90
2018-05-16T13:05:31.221Z,27.70
2018-05-16T13:07:59.467Z,27.40
2018-05-16T13:10:27.799Z,25.80
2018-05-16T13:12:55.450Z,25.80
2018-05-16T13:15:23.080Z,25.00
2018-05-16T13:17:50.762Z,24.70
2018-05-16T13:20:19.601Z,24.40
2018-05-16T13:22:47.995Z,23.90
2018-05-16T13:25:16.390Z,23.90
2018-05-16T13:27:44.039Z,23.70
2018-05-16T13:30:12.349Z,24.70
2018-05-16T13:32:40.009Z,25.10
2018-05-16T13:35:07.673Z,24.30
2018-05-16T13:37:35.272Z,23.90
2018-05-16T13:40:03.666Z,24.00
2018-05-16T13:42:32.028Z,25.30
2018-05-16T13:45:00.439Z,27.30
2018-05-16T13:47:28.086Z,27.20
2018-05-16T13:49:55.977Z,27.40
2018-05-16T13:52:25.496Z,26.60
2018-05-16T13:54:53.257Z,26.60
2018-05-16T13:57:21.653Z,26.70
2018-05-16T13:59:49.280Z,27.40
2018-05-16T14:02:16.892Z,28.80
2018-05-16T14:04:45.277Z,30.80
2018-05-16T14:07:14.419Z,32.10
2018-05-16T14:09:42.029Z,32.10
2018-05-16T14:12:11.154Z,33.60
2018-05-16T14:14:38.772Z,33.50
2018-05-16T14:17:06.409Z,31.50
2018-05-16T14:19:34.496Z,31.50
2018-05-16T14:22:02.544Z,30.40
2018-05-16T14:24:33.277Z,29.50
2018-05-16T14:27:01.809Z,28.80
2018-05-16T14:29:30.369Z,28.90
2018-05-16T14:31:59.050Z,29.40
2018-05-16T14:34:26.745Z,29.60
2018-05-16T14:37:00.478Z,31.70
2018-05-16T14:39:28.090Z,32.70
2018-05-16T14:41:55.684Z,33.30
2018-05-16T14:44:23.332Z,34.80
2018-05-16T14:46:50.917Z,36.50
2018-05-16T14:49:18.539Z,38.40
2018-05-16T14:51:47.798Z,40.20
2018-05-16T14:54:16.715Z,40.20
2018-05-16T14:56:45.029Z,40.20
2018-05-16T14:59:15.823Z,38.20
2018-05-16T15:01:43.642Z,39.00
2018-05-16T15:04:12.804Z,39.00
2018-05-16T15:06:40.454Z,39.00
2018-05-16T15:09:08.882Z,35.60
2018-05-16T15:11:36.605Z,35.50
2018-05-16T15:14:05.008Z,33.90
2018-05-16T15:16:32.611Z,33.90
2018-05-16T15:19:00.216Z,35.80
2018-05-16T15:21:27.864Z,36.90
2018-05-16T15:23:56.646Z,37.00
2018-05-16T15:26:26.045Z,36.70
2018-05-16T15:28:54.484Z,36.10
2018-05-16T15:31:22.708Z,36.00
2018-05-16T15:33:51.677Z,35.80
2018-05-16T15:36:19.332Z,35.80
2018-05-16T15:38:47.505Z,35.80
2018-05-16T15:41:16.228Z,34.80
2018-05-16T15:43:44.620Z,35.20
2018-05-16T15:46:12.237Z,35.10
2018-05-16T15:48:40.610Z,36.00
2018-05-16T15:51:09.755Z,37.30
2018-05-16T15:53:37.368Z,37.30
2018-05-16T15:56:05.000Z,38.10
2018-05-16T15:58:32.891Z,38.60
2018-05-16T16:01:01.750Z,38.70
2018-05-16T16:03:30.111Z,38.50
2018-05-16T16:05:58.508Z,38.00
2018-05-16T16:08:26.147Z,37.50
2018-05-16T16:10:53.913Z,37.50
2018-05-16T16:13:21.696Z,37.80
2018-05-16T16:15:49.306Z,37.80
2018-05-16T16:18:17.716Z,38.20
2018-05-16T16:20:45.383Z,38.20
2018-05-16T16:23:13.158Z,37.70
2018-05-16T16:25:40.927Z,38.00
2018-05-16T16:28:09.713Z,39.20
2018-05-16T16:30:37.366Z,40.00
2018-05-16T16:33:04.952Z,40.60
2018-05-16T16:35:32.561Z,41.20
2018-05-16T16:38:01.211Z,42.10
2018-05-16T16:40:29.588Z,43.40
2018-05-16T16:42:57.195Z,43.40
2018-05-16T16:45:24.808Z,44.30
2018-05-16T16:47:53.196Z,46.20
2018-05-16T16:50:21.550Z,46.00
2018-05-16T16:52:49.154Z,45.90
2018-05-16T16:55:17.519Z,46.90
2018-05-16T16:57:45.906Z,47.80
2018-05-16T17:00:14.291Z,48.20
2018-05-16T17:02:41.864Z,48.20
2018-05-16T17:05:09.469Z,49.00
2018-05-16T17:07:37.119Z,48.90
2018-05-16T17:10:05.521Z,50.20
2018-05-16T17:12:33.160Z,50.20
2018-05-16T17:15:00.776Z,51.20
2018-05-16T17:17:28.496Z,51.60
2018-05-16T17:19:56.124Z,52.20
2018-05-16T17:22:23.771Z,52.20
2018-05-16T17:24:51.423Z,52.30
2018-05-16T17:27:19.038Z,52.90
2018-05-16T17:29:46.610Z,53.10
2018-05-16T17:32:14.214Z,53.60
2018-05-16T17:34:41.828Z,53.90
2018-05-16T17:37:10.216Z,54.70
2018-05-16T17:39:38.590Z,55.30
2018-05-16T17:42:06.966Z,55.60
2018-05-16T17:44:35.346Z,55.80
2018-05-16T17:47:03.732Z,56.00
2018-05-16T17:49:32.152Z,55.90
2018-05-16T17:51:59.734Z,55.90
2018-05-16T17:54:27.338Z,56.50
2018-05-16T17:56:54.950Z,56.50
2018-05-16T17:59:22.746Z,56.20
2018-05-16T18:01:52.152Z,55.90
2018-05-16T18:04:20.652Z,55.70
2018-05-16T18:06:48.293Z,55.60
2018-05-16T18:09:17.041Z,55.80
2018-05-16T18:11:45.538Z,55.80
2018-05-16T18:17:32.721Z,55.60
2018-05-16T18:20:00.304Z,56.20
2018-05-16T18:22:27.931Z,56.70
2018-05-16T18:24:56.264Z,57.90
2018-05-16T18:27:23.920Z,57.80
2018-05-16T18:29:52.241Z,59.20
2018-05-16T18:32:20.621Z,59.90
2018-05-16T18:34:48.245Z,59.90
2018-05-16T18:37:15.816Z,60.70
2018-05-16T18:39:43.510Z,61.60
2018-05-16T18:42:11.150Z,62.30
2018-05-16T18:44:39.539Z,62.90
2018-05-16T18:47:07.966Z,63.40
2018-05-16T18:49:35.590Z,63.30
2018-05-16T18:52:04.809Z,63.30
2018-05-16T18:54:32.490Z,63.50
2018-05-16T18:57:00.241Z,63.90
2018-05-16T18:59:27.915Z,64.10
2018-05-16T19:01:55.665Z,64.20
2018-05-16T19:04:23.308Z,64.70
2018-05-16T19:06:51.165Z,64.60
2018-05-16T19:09:19.464Z,64.80
2018-05-16T19:11:48.018Z,65.10
2018-05-16T19:14:15.661Z,65.10
2018-05-16T19:16:44.088Z,65.00
2018-05-16T19:19:11.734Z,64.90
2018-05-16T19:21:39.316Z,65.10
2018-05-16T19:24:07.035Z,65.50
2018-05-16T19:26:34.674Z,65.90
2018-05-16T19:29:04.133Z,66.60
2018-05-16T19:31:32.739Z,67.00
2018-05-16T19:34:00.423Z,66.80
2018-05-16T19:36:28.818Z,67.80
2018-05-16T19:38:57.240Z,68.20
2018-05-16T19:41:24.920Z,68.20
2018-05-16T19:43:54.057Z,69.10
2018-05-16T19:46:21.714Z,69.00
2018-05-16T19:48:49.978Z,69.50
2018-05-16T19:51:18.760Z,70.20
2018-05-16T19:53:46.397Z,70.20
2018-05-16T19:56:14.170Z,70.60
2018-05-16T19:58:41.906Z,70.90
2018-05-16T20:01:09.770Z,71.20
2018-05-16T20:03:38.603Z,72.40
2018-05-16T20:06:06.988Z,72.90
2018-05-16T20:08:35.425Z,73.30
2018-05-16T20:11:05.057Z,73.20
2018-05-16T20:13:32.850Z,73.90
2018-05-16T20:16:01.306Z,74.90
2018-05-16T20:18:28.940Z,74.90
2018-05-16T20:20:56.633Z,75.30
2018-05-16T20:23:24.991Z,76.20
2018-05-16T20:25:52.901Z,76.10
2018-05-16T20:28:21.414Z,76.70
2018-05-16T20:30:49.101Z,76.70
2018-05-16T20:33:16.693Z,76.90
2018-05-16T20:35:45.071Z,77.40
2018-05-16T20:38:12.746Z,77.40
2018-05-16T20:40:40.406Z,77.60
2018-05-16T20:43:09.069Z,77.90
2018-05-16T20:45:37.498Z,78.30
2018-05-16T20:48:05.133Z,78.30
2018-05-16T20:50:32.765Z,78.40
2018-05-16T20:53:01.193Z,78.90
2018-05-16T20:55:28.837Z,78.90
2018-05-16T20:57:56.423Z,79.10
2018-05-16T21:00:24.031Z,79.40
2018-05-16T21:02:52.410Z,79.80
2018-05-16T21:05:20.831Z,80.10
2018-05-16T21:07:48.423Z,80.10
2018-05-16T21:10:16.027Z,80.20
2018-05-16T21:12:43.641Z,80.30
2018-05-16T21:15:11.243Z,80.20
2018-05-16T21:17:39.619Z,80.50
2018-05-16T21:20:07.281Z,80.50
2018-05-16T21:22:34.982Z,80.60
2018-05-16T21:25:02.619Z,80.60
2018-05-16T21:27:30.194Z,80.80
2018-05-16T21:29:57.763Z,80.60
2018-05-16T21:32:25.425Z,80.60
2018-05-16T21:34:53.600Z,80.50
2018-05-16T21:37:21.850Z,80.50
2018-05-16T21:39:49.497Z,80.70
2018-05-16T21:42:17.117Z,81.30
2018-05-16T21:44:44.742Z,80.60
2018-05-16T21:47:12.372Z,80.70
2018-05-16T21:49:40.048Z,80.50
2018-05-16T21:52:07.744Z,80.30
2018-05-16T21:54:35.404Z,80.30
2018-05-16T21:57:04.113Z,80.30
2018-05-16T21:59:32.749Z,80.60
2018-05-16T22:02:00.355Z,80.40
2018-05-16T22:04:27.981Z,80.40
2018-05-16T22:06:55.553Z,80.80
2018-05-16T22:09:23.163Z,80.90
2018-05-16T22:11:51.574Z,81.20
2018-05-16T22:14:19.185Z,81.60
2018-05-16T22:16:47.566Z,82.00
2018-05-16T22:19:15.942Z,82.10
2018-05-16T22:21:44.345Z,82.30
2018-05-16T22:24:11.923Z,82.30
2018-05-16T22:26:39.535Z,82.20
2018-05-16T22:29:07.912Z,82.50
2018-05-16T22:31:41.324Z,82.40
2018-05-16T22:34:15.437Z,82.80
2018-05-16T22:36:49.547Z,82.90
2018-05-16T22:39:23.684Z,83.20
2018-05-16T22:41:57.077Z,83.10
2018-05-16T22:44:40.561Z,83.30
2018-05-16T22:47:08.243Z,83.50
2018-05-16T22:49:36.588Z,83.60
2018-05-16T22:52:04.195Z,83.50
2018-05-16T22:54:32.573Z,84.10
2018-05-16T22:57:00.205Z,84.10
2018-05-16T22:59:27.847Z,84.60
2018-05-16T23:01:55.377Z,84.70
2018-05-16T23:04:23.027Z,85.00
2018-05-16T23:06:50.607Z,85.30
2018-05-16T23:09:18.235Z,85.00
2018-05-16T23:11:45.816Z,84.70
2018-05-16T23:14:13.450Z,84.50
2018-05-16T23:16:41.073Z,83.80
2018-05-16T23:19:09.475Z,82.50
2018-05-16T23:21:37.877Z,82.60
2018-05-16T23:24:05.486Z,82.60
2018-05-16T23:26:33.080Z,82.10
2018-05-16T23:29:01.455Z,80.90
2018-05-16T23:31:29.827Z,81.30
2018-05-16T23:33:58.172Z,81.50
2018-05-16T23:36:25.813Z,81.50
2018-05-16T23:38:53.395Z,81.70
2018-05-16T23:41:21.000Z,81.80
2018-05-16T23:43:48.645Z,82.10
2018-05-16T23:46:16.991Z,83.20
2018-05-16T23:48:44.641Z,82.50
2018-05-16T23:51:12.261Z,82.80
2018-05-16T23:53:39.876Z,83.30
2018-05-16T23:56:07.461Z,83.60
2018-05-16T23:58:35.803Z,84.10
